Time,TemperatureF,DewpointF,PressureIn,WindDirection,WindDirectionDegrees,WindSpeedMPH,WindSpeedGustMPH,Humidity,HourlyPrecipIn,Conditions,Clouds,dailyrainin,SolarRadiationWatts/m^2,SoftwareType,DateUTC
2013-02-19 00:10:00,29.9,17.0,31.46,SW,235,0.0,2.0,59,0.00,,,0.00,0,weatherlink.com 1.10,2013-02-19 07:10:00,
2013-02-19 00:25:00,29.0,17.0,31.46,SW,235,0.0,2.0,62,0.00,,,0.00,0,weatherlink.com 1.10,2013-02-19 07:25:00,
2013-02-19 00:40:00,28.6,17.0,31.46,SW,234,0.0,2.0,62,0.00,,,0.00,0,weatherlink.com 1.10,2013-02-19 07:40:00,
2013-02-19 00:55:00,28.9,16.0,31.45,SW,234,0.0,1.0,60,0.00,,,0.00,0,weatherlink.com 1.10,2013-02-19 07:55:00,
2013-02-19 01:10:00,29.2,16.0,31.45,SW,234,1.0,2.0,59,0.00,,,0.00,0,weatherlink.com 1.10,2013-02-19 08:10:00,
2013-02-19 01:25:00,29.1,16.0,31.44,SW,234,0.0,0.0,59,0.00,,,0.00,0,weatherlink.com 1.10,2013-02-19 08:25:00,
2013-02-19 01:40:00,29.0,16.0,31.44,SW,234,0.0,0.0,59,0.00,,,0.00,0,weatherlink.com 1.10,2013-02-19 08:40:00,
2013-02-19 01:55:00,28.9,16.0,31.43,SW,234,0.0,1.0,59,0.00,,,0.00,0,weatherlink.com 1.10,2013-02-19 08:55:00,
2013-02-19 02:10:00,28.8,16.0,31.43,SW,234,0.0,0.0,59,0.00,,,0.00,0,weatherlink.com 1.10,2013-02-19 09:10:00,
2013-02-19 02:26:00,28.7,16.0,31.43,SW,234,0.0,1.0,59,0.00,,,0.00,0,weatherlink.com 1.10,2013-02-19 09:26:00,
2013-02-19 02:41:00,29.0,16.0,31.43,SW,232,2.0,5.0,58,0.00,,,0.00,0,weatherlink.com 1.10,2013-02-19 09:41:00,
2013-02-19 02:56:00,28.7,16.0,31.42,SW,231,1.0,3.0,60,0.00,,,0.00,0,weatherlink.com 1.10,2013-02-19 09:56:00,
2013-02-19 03:11:00,28.3,16.0,31.42,SW,231,1.0,2.0,60,0.00,,,0.00,0,weatherlink.com 1.10,2013-02-19 10:11:00,
2013-02-19 03:26:00,27.7,17.0,31.41,SW,231,1.0,3.0,64,0.00,,,0.00,0,weatherlink.com 1.10,2013-02-19 10:26:00,
2013-02-19 03:41:00,27.2,17.0,31.41,SW,231,0.0,3.0,65,0.00,,,0.00,0,weatherlink.com 1.10,2013-02-19 10:41:00,
2013-02-19 03:56:00,26.8,16.0,31.41,SW,231,0.0,1.0,65,0.00,,,0.00,0,weatherlink.com 1.10,2013-02-19 10:56:00,
2013-02-19 04:11:00,27.2,15.0,31.40,SSE,147,0.0,7.0,61,0.00,,,0.00,0,weatherlink.com 1.10,2013-02-19 11:11:00,
2013-02-19 04:26:00,27.7,16.0,31.40,South,171,0.0,7.0,63,0.00,,,0.00,0,weatherlink.com 1.10,2013-02-19 11:26:00,
2013-02-19 04:41:00,-999.0,-99.9,31.39,North,-999,-999.0,-999.0,-999,0.00,,,0.00,,weatherlink.com 1.10,2013-02-19 11:41:00,
2013-02-19 04:56:00,-999.0,-99.9,31.38,North,-999,-999.0,-999.0,-999,0.00,,,0.00,,weatherlink.com 1.10,2013-02-19 11:56:00,
2013-02-19 05:11:00,-999.0,-99.9,31.36,North,-999,-999.0,-999.0,-999,0.00,,,0.00,,weatherlink.com 1.10,2013-02-19 12:11:00,
2013-02-19 05:26:00,-999.0,-99.9,31.36,North,-999,-999.0,-999.0,-999,0.00,,,0.00,,weatherlink.com 1.10,2013-02-19 12:26:00,
2013-02-19 05:41:00,-999.0,-99.9,31.36,North,-999,-999.0,-999.0,-999,0.00,,,0.00,,weatherlink.com 1.10,2013-02-19 12:41:00,
2013-02-19 05:56:00,-999.0,-99.9,31.36,North,-999,-999.0,-999.0,-999,0.00,,,0.00,,weatherlink.com 1.10,2013-02-19 12:56:00,
2013-02-19 06:11:00,-999.0,-99.9,31.34,North,-999,-999.0,-999.0,-999,0.00,,,0.00,,weatherlink.com 1.10,2013-02-19 13:11:00,
2013-02-19 06:26:00,-999.0,-99.9,31.34,North,-999,-999.0,-999.0,-999,0.00,,,0.00,,weatherlink.com 1.10,2013-02-19 13:26:00,
2013-02-19 06:41:00,-999.0,-99.9,31.32,North,-999,-999.0,-999.0,-999,0.00,,,0.00,,weatherlink.com 1.10,2013-02-19 13:41:00,
2013-02-19 06:56:00,-999.0,-99.9,31.32,North,-999,-999.0,-999.0,-999,0.00,,,0.00,,weatherlink.com 1.10,2013-02-19 13:56:00,
2013-02-19 07:12:00,-999.0,-99.9,31.32,North,-999,-999.0,-999.0,-999,0.00,,,0.00,,weatherlink.com 1.10,2013-02-19 14:12:00,
2013-02-19 07:27:00,-999.0,-99.9,31.32,North,-999,-999.0,-999.0,-999,0.00,,,0.00,,weatherlink.com 1.10,2013-02-19 14:27:00,
2013-02-19 07:42:00,26.6,16.0,31.33,South,171,2.0,5.0,64,0.00,,,0.00,0,weatherlink.com 1.10,2013-02-19 14:42:00,
2013-02-19 07:57:00,26.6,16.0,31.34,South,173,3.0,6.0,65,0.00,,,0.00,25,weatherlink.com 1.10,2013-02-19 14:57:00,
2013-02-19 08:12:00,27.0,16.0,31.34,SSE,167,3.0,8.0,63,0.00,,,0.00,32,weatherlink.com 1.10,2013-02-19 15:12:00,
2013-02-19 08:27:00,28.0,16.0,31.34,South,187,3.0,7.0,62,0.00,,,0.00,40,weatherlink.com 1.10,2013-02-19 15:27:00,
2013-02-19 08:42:00,27.7,16.0,31.34,South,184,3.0,6.0,63,0.00,,,0.00,58,weatherlink.com 1.10,2013-02-19 15:42:00,
2013-02-19 08:57:00,27.7,17.0,31.34,SSE,161,2.0,4.0,64,0.00,,,0.00,90,weatherlink.com 1.10,2013-02-19 15:57:00,
2013-02-19 09:12:00,31.5,15.0,31.34,SSE,149,1.0,10.0,51,0.00,,,0.00,95,weatherlink.com 1.10,2013-02-19 16:12:00,
2013-02-19 09:27:00,30.3,15.0,31.33,South,169,5.0,8.0,54,0.00,,,0.00,100,weatherlink.com 1.10,2013-02-19 16:27:00,
2013-02-19 09:42:00,29.2,18.0,31.34,SSW,193,4.0,7.0,62,0.00,,,0.00,130,weatherlink.com 1.10,2013-02-19 16:42:00,
2013-02-19 09:57:00,29.7,16.0,31.33,South,190,8.0,10.0,58,0.00,,,0.00,172,weatherlink.com 1.10,2013-02-19 16:57:00,
2013-02-19 10:12:00,32.9,13.0,31.33,SE,142,6.0,11.0,44,0.00,,,0.00,165,weatherlink.com 1.10,2013-02-19 17:12:00,
2013-02-19 10:27:00,31.7,18.0,31.32,SSE,153,8.0,13.0,57,0.00,,,0.00,197,weatherlink.com 1.10,2013-02-19 17:27:00,
2013-02-19 10:42:00,30.7,20.0,31.33,WSW,246,0.0,6.0,64,0.00,,,0.00,220,weatherlink.com 1.10,2013-02-19 17:42:00,
2013-02-19 10:57:00,29.4,18.0,31.32,SSE,154,8.0,11.0,63,0.00,,,0.00,195,weatherlink.com 1.10,2013-02-19 17:57:00,
2013-02-19 11:12:00,30.7,21.0,31.32,South,182,1.0,5.0,66,0.00,,,0.00,257,weatherlink.com 1.10,2013-02-19 18:12:00,
2013-02-19 11:27:00,30.8,21.0,31.32,South,182,0.0,1.0,68,0.00,,,0.00,346,weatherlink.com 1.10,2013-02-19 18:27:00,
2013-02-19 11:42:00,33.7,15.0,31.31,SSE,161,7.0,9.0,47,0.00,,,0.00,459,weatherlink.com 1.10,2013-02-19 18:42:00,
2013-02-19 11:57:00,35.4,20.0,31.31,SW,215,2.0,9.0,53,0.00,,,0.00,591,weatherlink.com 1.10,2013-02-19 18:57:00,
2013-02-19 12:12:00,33.6,20.0,31.31,WNW,284,3.0,5.0,57,0.00,,,0.00,304,weatherlink.com 1.10,2013-02-19 19:12:00,
2013-02-19 12:27:00,32.4,19.0,31.30,NNW,348,0.0,3.0,59,0.00,,,0.00,401,weatherlink.com 1.10,2013-02-19 19:27:00,
2013-02-19 12:43:00,33.9,20.0,31.30,WNW,296,4.0,7.0,56,0.00,,,0.00,306,weatherlink.com 1.10,2013-02-19 19:43:00,
2013-02-19 12:58:00,34.1,18.0,31.30,NW,304,3.0,6.0,53,0.00,,,0.00,519,weatherlink.com 1.10,2013-02-19 19:58:00,
2013-02-19 13:13:00,34.4,18.0,31.30,WNW,286,3.0,5.0,52,0.00,,,0.00,601,weatherlink.com 1.10,2013-02-19 20:13:00,
2013-02-19 13:28:00,36.1,16.0,31.29,WNW,291,4.0,8.0,45,0.00,,,0.00,610,weatherlink.com 1.10,2013-02-19 20:28:00,
2013-02-19 13:43:00,35.7,14.0,31.29,West,265,7.0,9.0,41,0.00,,,0.00,378,weatherlink.com 1.10,2013-02-19 20:43:00,
2013-02-19 13:58:00,36.4,14.0,31.29,WSW,250,6.0,8.0,40,0.00,,,0.00,519,weatherlink.com 1.10,2013-02-19 20:58:00,
2013-02-19 14:13:00,36.5,15.0,31.29,West,281,4.0,9.0,42,0.00,,,0.00,385,weatherlink.com 1.10,2013-02-19 21:13:00,
2013-02-19 14:28:00,36.1,16.0,31.29,West,268,3.0,7.0,45,0.00,,,0.00,272,weatherlink.com 1.10,2013-02-19 21:28:00,
2013-02-19 14:43:00,35.6,17.0,31.29,WNW,298,2.0,6.0,46,0.00,,,0.00,230,weatherlink.com 1.10,2013-02-19 21:43:00,
2013-02-19 14:58:00,35.7,18.0,31.30,NW,304,4.0,7.0,48,0.00,,,0.00,236,weatherlink.com 1.10,2013-02-19 21:58:00,
2013-02-19 15:13:00,36.0,16.0,31.30,WNW,302,5.0,5.0,45,0.00,,,0.00,244,weatherlink.com 1.10,2013-02-19 22:13:00,
2013-02-19 15:28:00,35.7,20.0,31.30,NW,323,6.0,7.0,54,0.00,,,0.00,322,weatherlink.com 1.10,2013-02-19 22:28:00,
2013-02-19 15:43:00,35.9,20.0,31.29,NNW,333,6.0,10.0,53,0.00,,,0.00,248,weatherlink.com 1.10,2013-02-19 22:43:00,
2013-02-19 15:58:00,36.1,18.0,31.30,NNW,341,3.0,11.0,48,0.00,,,0.00,332,weatherlink.com 1.10,2013-02-19 22:58:00,
2013-02-19 16:13:00,35.2,19.0,31.30,North,350,4.0,9.0,53,0.00,,,0.00,163,weatherlink.com 1.10,2013-02-19 23:13:00,
2013-02-19 16:28:00,35.3,21.0,31.30,North,355,5.0,8.0,56,0.00,,,0.00,169,weatherlink.com 1.10,2013-02-19 23:28:00,
2013-02-19 16:43:00,35.5,21.0,31.30,NNW,345,4.0,8.0,57,0.00,,,0.00,183,weatherlink.com 1.10,2013-02-19 23:43:00,
2013-02-19 16:58:00,35.2,20.0,31.30,North,11,2.0,9.0,55,0.00,,,0.00,130,weatherlink.com 1.10,2013-02-19 23:58:00,
2013-02-19 17:13:00,35.1,21.0,31.30,North,9,3.0,7.0,58,0.00,,,0.00,83,weatherlink.com 1.10,2013-02-20 00:13:00,
2013-02-19 17:28:00,34.8,22.0,31.30,North,10,1.0,5.0,60,0.00,,,0.00,63,weatherlink.com 1.10,2013-02-20 00:28:00,
2013-02-19 17:43:00,34.2,22.0,31.31,North,350,5.0,7.0,61,0.00,,,0.00,21,weatherlink.com 1.10,2013-02-20 00:43:00,
2013-02-19 17:58:00,32.7,22.0,31.32,North,360,4.0,10.0,64,0.00,,,0.00,7,weatherlink.com 1.10,2013-02-20 00:58:00,
2013-02-19 18:13:00,31.9,21.0,31.32,NNE,20,3.0,7.0,65,0.00,,,0.00,0,weatherlink.com 1.10,2013-02-20 01:13:00,
2013-02-19 18:28:00,31.9,22.0,31.33,NNE,32,4.0,11.0,66,0.00,,,0.00,0,weatherlink.com 1.10,2013-02-20 01:28:00,
2013-02-19 18:43:00,32.0,22.0,31.33,NNE,15,5.0,8.0,67,0.00,,,0.00,0,weatherlink.com 1.10,2013-02-20 01:43:00,
2013-02-19 18:58:00,32.0,22.0,31.33,NNE,19,3.0,7.0,68,0.00,,,0.00,0,weatherlink.com 1.10,2013-02-20 01:58:00,
2013-02-19 19:13:00,32.0,23.0,31.34,NE,44,3.0,5.0,69,0.00,,,0.00,0,weatherlink.com 1.10,2013-02-20 02:13:00,
2013-02-19 19:28:00,32.3,23.0,31.34,NNE,30,3.0,6.0,68,0.00,,,0.00,0,weatherlink.com 1.10,2013-02-20 02:28:00,
2013-02-19 19:43:00,32.5,23.0,31.35,NNE,17,1.0,5.0,68,0.00,,,0.00,0,weatherlink.com 1.10,2013-02-20 02:43:00,
2013-02-19 19:58:00,32.5,23.0,31.36,NNE,17,3.0,7.0,68,0.00,,,0.00,0,weatherlink.com 1.10,2013-02-20 02:58:00,
2013-02-19 20:13:00,32.8,23.0,31.36,NNE,26,3.0,7.0,68,0.00,,,0.00,0,weatherlink.com 1.10,2013-02-20 03:13:00,
2013-02-19 20:28:00,32.6,23.0,31.36,NNE,23,1.0,7.0,69,0.00,,,0.00,0,weatherlink.com 1.10,2013-02-20 03:28:00,
2013-02-19 20:43:00,32.5,24.0,31.36,North,5,4.0,8.0,70,0.00,,,0.00,0,weatherlink.com 1.10,2013-02-20 03:43:00,
2013-02-19 20:58:00,31.9,24.0,31.37,NNE,24,2.0,7.0,72,0.00,,,0.00,0,weatherlink.com 1.10,2013-02-20 03:58:00,
2013-02-19 21:13:00,32.3,24.0,31.37,NNE,15,2.0,5.0,70,0.00,,,0.00,0,weatherlink.com 1.10,2013-02-20 04:13:00,
2013-02-19 21:28:00,32.5,23.0,31.38,NNE,18,1.0,10.0,67,0.00,,,0.00,0,weatherlink.com 1.10,2013-02-20 04:28:00,
2013-02-19 21:43:00,31.4,24.0,31.38,NW,304,1.0,2.0,74,0.00,,,0.00,0,weatherlink.com 1.10,2013-02-20 04:43:00,
2013-02-19 21:58:00,30.7,24.0,31.39,NW,305,0.0,2.0,75,0.00,,,0.00,0,weatherlink.com 1.10,2013-02-20 04:58:00,
2013-02-19 22:13:00,30.4,23.0,31.39,NNW,328,0.0,2.0,75,0.00,,,0.00,0,weatherlink.com 1.10,2013-02-20 05:13:00,
2013-02-19 22:28:00,30.2,24.0,31.39,NNW,328,0.0,1.0,76,0.00,,,0.00,0,weatherlink.com 1.10,2013-02-20 05:28:00,
2013-02-19 22:43:00,30.0,24.0,31.40,NNW,328,1.0,2.0,77,0.00,,,0.00,0,weatherlink.com 1.10,2013-02-20 05:43:00,
2013-02-19 22:58:00,29.8,23.0,31.40,NNW,328,0.0,2.0,77,0.00,,,0.00,0,weatherlink.com 1.10,2013-02-20 05:58:00,
2013-02-19 23:13:00,29.4,23.0,31.41,NNW,328,0.0,2.0,77,0.00,,,0.00,0,weatherlink.com 1.10,2013-02-20 06:13:00,
2013-02-19 23:28:00,29.3,23.0,31.41,NNW,340,0.0,3.0,77,0.00,,,0.00,0,weatherlink.com 1.10,2013-02-20 06:28:00,
2013-02-19 23:43:00,29.4,23.0,31.41,NNW,340,0.0,1.0,76,0.00,,,0.00,0,weatherlink.com 1.10,2013-02-20 06:43:00,
2013-02-19 23:58:00,29.4,23.0,31.42,NNW,340,0.0,1.0,76,0.00,,,0.00,0,weatherlink.com 1.10,2013-02-20 06:58:00,